createdAt,value
2018-12-05T00:00:28.364Z,1.37
2018-12-05T00:02:54.985Z,1.50
2018-12-05T00:05:21.825Z,0.90
2018-12-05T00:07:48.321Z,1.50
2018-12-05T00:10:14.929Z,1.30
2018-12-05T00:12:41.674Z,1.40
2018-12-05T00:15:08.731Z,1.23
2018-12-05T00:17:35.351Z,1.27
2018-12-05T00:20:03.558Z,1.50
2018-12-05T00:22:30.137Z,1.40
2018-12-05T00:24:56.657Z,1.40
2018-12-05T00:27:23.469Z,2.23
2018-12-05T00:29:50.070Z,0.97
2018-12-05T00:32:16.705Z,1.20
2018-12-05T00:34:43.417Z,1.20
2018-12-05T00:37:10.016Z,1.50
2018-12-05T00:39:36.509Z,1.40
2018-12-05T00:42:03.442Z,1.63
2018-12-05T00:44:30.199Z,1.03
2018-12-05T00:46:56.926Z,1.30
2018-12-05T00:49:24.011Z,1.10
2018-12-05T00:51:50.595Z,1.33
2018-12-05T00:54:17.176Z,1.37
2018-12-05T00:56:44.011Z,1.33
2018-12-05T00:59:10.639Z,1.27
2018-12-05T01:01:37.293Z,1.23
2018-12-05T01:04:05.016Z,1.60
2018-12-05T01:06:31.650Z,1.27
2018-12-05T01:08:58.297Z,1.53
2018-12-05T01:11:25.040Z,1.23
2018-12-05T01:13:51.625Z,1.50
2018-12-05T01:16:18.434Z,1.07
2018-12-05T01:18:45.258Z,1.33
2018-12-05T01:21:11.898Z,1.30
2018-12-05T01:23:38.611Z,1.40
2018-12-05T01:26:05.254Z,1.23
2018-12-05T01:28:31.867Z,1.17
2018-12-05T01:30:58.457Z,1.80
2018-12-05T01:33:25.929Z,1.10
2018-12-05T01:35:52.643Z,1.77
2018-12-05T01:38:19.275Z,1.40
2018-12-05T01:40:46.350Z,0.97
2018-12-05T01:43:12.868Z,1.20
2018-12-05T01:45:39.475Z,1.23
2018-12-05T01:50:32.306Z,1.17
2018-12-05T01:52:58.942Z,1.00
2018-12-05T01:57:52.184Z,1.13
2018-12-05T02:00:18.806Z,1.30
2018-12-05T02:05:11.897Z,1.20
2018-12-05T02:07:38.412Z,1.27
2018-12-05T02:12:31.559Z,1.27
2018-12-05T02:14:58.121Z,1.07
2018-12-05T02:17:25.030Z,1.43
2018-12-05T02:19:51.558Z,1.10
2018-12-05T02:22:18.157Z,1.27
2018-12-05T02:27:10.943Z,1.17
2018-12-05T02:29:43.767Z,1.07
2018-12-05T02:32:10.619Z,1.37
2018-12-05T02:34:37.230Z,1.50
2018-12-05T02:37:03.863Z,1.20
2018-12-05T02:39:30.663Z,1.20
2018-12-05T02:41:57.281Z,1.13
2018-12-05T02:44:23.857Z,1.30
2018-12-05T02:46:50.716Z,1.20
2018-12-05T02:49:17.310Z,1.33
2018-12-05T02:51:43.910Z,1.40
2018-12-05T02:56:37.022Z,1.30
2018-12-05T02:59:03.749Z,1.40
2018-12-05T03:03:57.171Z,1.23
2018-12-05T03:06:23.936Z,1.00
2018-12-05T03:11:17.637Z,1.17
2018-12-05T03:13:44.258Z,1.30
2018-12-05T03:16:11.015Z,1.30
2018-12-05T03:18:37.507Z,1.30
2018-12-05T03:21:04.115Z,1.20
2018-12-05T03:25:58.233Z,1.30
2018-12-05T03:28:24.819Z,0.90
2018-12-05T03:33:17.940Z,1.20
2018-12-05T03:35:44.664Z,1.40
2018-12-05T03:38:12.394Z,1.20
2018-12-05T03:40:39.015Z,1.60
2018-12-05T03:43:05.732Z,0.87
2018-12-05T03:45:32.805Z,1.20
2018-12-05T03:47:59.427Z,1.20
2018-12-05T03:50:26.168Z,1.60
2018-12-05T03:52:52.938Z,1.20
2018-12-05T03:55:22.472Z,0.87
2018-12-05T03:57:49.079Z,1.00
2018-12-05T04:02:42.082Z,1.20
2018-12-05T04:05:08.701Z,1.33
2018-12-05T04:10:03.359Z,1.40
2018-12-05T04:12:30.620Z,1.33
2018-12-05T04:14:57.680Z,1.00
2018-12-05T04:17:24.228Z,1.30
2018-12-05T04:19:50.779Z,2.10
2018-12-05T04:24:43.816Z,3.67
2018-12-05T04:27:10.369Z,2.77
2018-12-05T04:32:03.424Z,1.70
2018-12-05T04:34:29.948Z,1.80
2018-12-05T04:36:57.054Z,1.30
2018-12-05T04:39:23.715Z,1.20
2018-12-05T04:41:50.212Z,1.83
2018-12-05T04:46:43.181Z,1.33
2018-12-05T04:49:09.682Z,1.33
2018-12-05T04:51:36.492Z,1.07
2018-12-05T04:54:03.506Z,0.97
2018-12-05T04:56:30.059Z,1.20
2018-12-05T05:01:23.440Z,1.17
2018-12-05T05:03:50.077Z,1.10
2018-12-05T05:06:16.862Z,1.17
2018-12-05T05:08:43.403Z,1.07
2018-12-05T05:11:10.183Z,1.47
2018-12-05T05:16:03.166Z,1.30
2018-12-05T05:18:29.694Z,1.40
2018-12-05T05:23:23.148Z,1.50
2018-12-05T05:25:49.795Z,1.50
2018-12-05T05:30:42.775Z,1.40
2018-12-05T05:33:09.506Z,1.57
2018-12-05T05:35:36.379Z,1.63
2018-12-05T05:38:02.995Z,1.30
2018-12-05T05:40:29.566Z,1.40
2018-12-05T05:42:56.308Z,1.70
2018-12-05T05:45:22.922Z,1.57
2018-12-05T05:47:49.608Z,1.50
2018-12-05T05:52:42.670Z,1.50
2018-12-05T05:55:09.158Z,1.40
2018-12-05T05:57:36.825Z,1.73
2018-12-05T06:00:04.343Z,1.83
2018-12-05T06:02:30.941Z,1.77
2018-12-05T06:04:57.640Z,1.40
2018-12-05T06:07:24.243Z,1.60
2018-12-05T06:09:50.750Z,1.60
2018-12-05T06:12:17.695Z,1.70
2018-12-05T06:14:44.218Z,1.80
2018-12-05T06:17:10.790Z,1.70
2018-12-05T06:19:37.924Z,1.90
2018-12-05T06:22:04.510Z,1.90
2018-12-05T06:24:31.278Z,1.70
2018-12-05T06:26:57.968Z,1.77
2018-12-05T06:29:24.466Z,1.93
2018-12-05T06:31:51.065Z,1.80
2018-12-05T06:34:17.893Z,1.63
2018-12-05T06:36:44.572Z,1.90
2018-12-05T06:39:11.447Z,1.47
2018-12-05T06:44:04.665Z,1.90
2018-12-05T06:46:31.185Z,1.90
2018-12-05T06:48:58.054Z,1.50
2018-12-05T06:51:24.700Z,2.13
2018-12-05T06:53:51.294Z,1.87
2018-12-05T06:56:18.504Z,1.80
2018-12-05T06:58:45.100Z,1.80
2018-12-05T07:01:12.404Z,1.90
2018-12-05T07:06:05.688Z,1.80
2018-12-05T07:08:32.266Z,2.23
2018-12-05T07:13:25.488Z,2.03
2018-12-05T07:15:51.991Z,2.30
2018-12-05T07:18:18.875Z,1.90
2018-12-05T07:20:45.470Z,2.40
2018-12-05T07:23:12.098Z,2.40
2018-12-05T07:25:39.157Z,2.47
2018-12-05T07:28:05.784Z,2.77
2018-12-05T07:30:32.314Z,2.40
2018-12-05T07:35:25.351Z,2.60
2018-12-05T07:37:51.943Z,2.70
2018-12-05T07:40:19.012Z,2.77
2018-12-05T07:42:45.691Z,3.10
2018-12-05T07:45:12.290Z,2.53
2018-12-05T07:47:39.208Z,2.57
2018-12-05T07:50:05.826Z,2.57
2018-12-05T07:52:32.463Z,2.30
2018-12-05T07:57:25.367Z,2.87
2018-12-05T07:59:51.983Z,2.73
2018-12-05T08:04:45.778Z,2.63
2018-12-05T08:07:12.391Z,2.80
2018-12-05T08:09:39.994Z,2.30
2018-12-05T08:12:06.715Z,2.20
2018-12-05T08:14:33.476Z,2.43
2018-12-05T08:17:00.392Z,2.40
2018-12-05T08:19:26.981Z,2.43
2018-12-05T08:21:53.590Z,2.57
2018-12-05T08:24:20.534Z,2.47
2018-12-05T08:26:47.295Z,2.33
2018-12-05T08:29:13.902Z,2.43
2018-12-05T08:31:40.917Z,2.47
2018-12-05T08:34:07.494Z,2.10
2018-12-05T08:36:34.092Z,2.70
2018-12-05T08:39:01.549Z,2.20
2018-12-05T08:41:28.043Z,2.17
2018-12-05T08:43:54.674Z,2.33
2018-12-05T08:48:47.697Z,2.60
2018-12-05T08:51:14.211Z,2.20
2018-12-05T08:56:07.338Z,2.00
2018-12-05T08:58:33.940Z,2.37
2018-12-05T09:01:00.952Z,1.97
2018-12-05T09:03:27.547Z,2.30
2018-12-05T09:05:54.159Z,2.40
2018-12-05T09:10:47.198Z,2.67
2018-12-05T09:13:13.923Z,2.30
2018-12-05T09:18:07.048Z,2.17
2018-12-05T09:20:33.759Z,2.67
2018-12-05T09:25:26.918Z,2.17
2018-12-05T09:27:54.211Z,2.27
2018-12-05T09:32:47.116Z,2.57
2018-12-05T09:35:13.755Z,2.50
2018-12-05T09:37:40.630Z,2.30
2018-12-05T09:40:07.391Z,2.50
2018-12-05T09:42:34.050Z,2.53
2018-12-05T09:45:01.043Z,2.37
2018-12-05T09:47:27.633Z,2.20
2018-12-05T09:49:54.199Z,2.37
2018-12-05T09:52:21.181Z,2.20
2018-12-05T09:54:48.172Z,2.50
2018-12-05T09:57:14.851Z,2.20
2018-12-05T09:59:41.651Z,2.10
2018-12-05T10:02:08.213Z,2.17
2018-12-05T10:04:34.813Z,2.30
2018-12-05T10:07:01.774Z,2.10
2018-12-05T10:09:28.442Z,2.40
2018-12-05T10:11:55.090Z,1.93
2018-12-05T10:14:21.723Z,2.57
2018-12-05T10:16:48.800Z,2.40
2018-12-05T10:19:15.519Z,1.83
2018-12-05T10:21:42.563Z,2.10
2018-12-05T10:24:09.294Z,1.90
2018-12-05T10:26:36.077Z,2.00
2018-12-05T10:29:03.507Z,1.90
2018-12-05T10:31:30.146Z,2.40
2018-12-05T10:33:56.787Z,2.50
2018-12-05T10:36:24.328Z,2.13
2018-12-05T10:38:51.036Z,2.33
2018-12-05T10:41:17.584Z,2.20
2018-12-05T10:43:44.512Z,2.20
2018-12-05T10:46:11.187Z,2.50
2018-12-05T10:48:37.873Z,2.33
2018-12-05T10:51:04.777Z,1.97
2018-12-05T10:53:31.455Z,2.30
2018-12-05T10:55:58.094Z,2.10
2018-12-05T10:58:25.079Z,1.90
2018-12-05T11:00:57.823Z,2.33
2018-12-05T11:03:30.090Z,1.90
2018-12-05T11:06:02.306Z,1.97
2018-12-05T11:08:34.819Z,1.80
2018-12-05T11:11:07.324Z,1.93
2018-12-05T11:13:40.448Z,1.83
2018-12-05T11:16:09.701Z,1.87
2018-12-05T11:18:42.401Z,1.93
2018-12-05T11:21:14.852Z,2.03
2018-12-05T11:23:59.359Z,1.90
2018-12-05T11:26:26.716Z,2.10
2018-12-05T11:28:52.988Z,2.27
2018-12-05T11:31:19.852Z,1.90
2018-12-05T11:33:46.105Z,1.87
2018-12-05T11:36:12.512Z,1.60
2018-12-05T11:38:39.237Z,1.90
2018-12-05T11:41:05.523Z,3.07
2018-12-05T11:43:31.691Z,2.13
2018-12-05T11:45:58.623Z,2.03
2018-12-05T11:48:24.915Z,2.00
2018-12-05T11:50:51.182Z,2.07
2018-12-05T11:53:17.748Z,2.03
2018-12-05T11:55:44.045Z,2.47
2018-12-05T11:58:10.377Z,3.30
2018-12-05T12:00:36.974Z,2.53
2018-12-05T12:03:03.347Z,2.00
2018-12-05T12:05:29.665Z,1.70
2018-12-05T12:07:56.006Z,2.37
2018-12-05T12:10:24.308Z,1.80
2018-12-05T12:12:56.928Z,2.43
2018-12-05T12:15:23.203Z,1.87
2018-12-05T12:17:49.504Z,1.60
2018-12-05T12:20:16.172Z,1.83
2018-12-05T12:22:42.364Z,1.30
2018-12-05T12:25:08.632Z,2.00
2018-12-05T12:27:35.193Z,1.70
2018-12-05T12:30:01.399Z,1.50
2018-12-05T12:32:27.857Z,1.33
2018-12-05T12:34:54.287Z,1.20
2018-12-05T12:37:20.515Z,1.40
2018-12-05T12:39:46.704Z,1.17
2018-12-05T12:42:13.396Z,1.23
2018-12-05T12:44:39.684Z,1.20
2018-12-05T12:47:05.928Z,1.50
2018-12-05T12:49:32.337Z,1.30
2018-12-05T12:51:58.604Z,1.37
2018-12-05T12:54:24.787Z,1.23
2018-12-05T12:56:51.539Z,1.50
2018-12-05T12:59:17.634Z,1.20
2018-12-05T13:01:43.909Z,1.37
2018-12-05T13:04:10.459Z,1.40
2018-12-05T13:06:36.712Z,1.43
2018-12-05T13:09:05.700Z,1.20
2018-12-05T13:11:32.208Z,1.53
2018-12-05T13:13:58.563Z,1.87
2018-12-05T13:16:24.975Z,1.50
2018-12-05T13:18:51.294Z,1.10
2018-12-05T13:21:17.609Z,1.23
2018-12-05T13:23:43.852Z,1.60
2018-12-05T13:26:10.491Z,1.67
2018-12-05T13:28:36.811Z,1.37
2018-12-05T13:31:03.308Z,1.20
2018-12-05T13:33:30.074Z,1.40
2018-12-05T13:35:56.336Z,1.50
2018-12-05T13:38:22.682Z,1.47
2018-12-05T13:40:49.319Z,1.80
2018-12-05T13:43:15.511Z,1.70
2018-12-05T13:45:41.722Z,1.50
2018-12-05T13:48:08.300Z,1.40
2018-12-05T13:50:34.504Z,1.50
2018-12-05T13:53:00.744Z,1.30
2018-12-05T13:55:27.303Z,1.30
2018-12-05T13:57:53.507Z,1.70
2018-12-05T14:00:19.875Z,1.53
2018-12-05T14:02:46.413Z,1.33
2018-12-05T14:05:12.685Z,1.63
2018-12-05T14:07:39.328Z,1.80
2018-12-05T14:10:06.443Z,1.17
2018-12-05T14:12:38.096Z,1.70
2018-12-05T14:15:05.295Z,1.30
2018-12-05T14:17:32.049Z,1.50
2018-12-05T14:19:58.797Z,1.70
2018-12-05T14:22:25.400Z,1.40
2018-12-05T14:24:52.780Z,1.23
2018-12-05T14:27:19.275Z,1.83
2018-12-05T14:29:45.776Z,1.40
2018-12-05T14:32:12.723Z,1.33
2018-12-05T14:34:39.617Z,1.20
2018-12-05T14:37:06.157Z,1.40
2018-12-05T14:39:32.940Z,1.30
2018-12-05T14:41:59.849Z,1.33
2018-12-05T14:44:26.440Z,1.40
2018-12-05T14:46:53.404Z,1.10
2018-12-05T14:49:20.009Z,1.40
2018-12-05T14:51:46.726Z,1.40
2018-12-05T14:54:13.886Z,1.13
2018-12-05T14:56:40.718Z,1.50
2018-12-05T14:59:07.304Z,1.30
2018-12-05T15:01:34.071Z,1.30
2018-12-05T15:04:00.915Z,1.20
2018-12-05T15:06:27.427Z,1.17
2018-12-05T15:08:54.290Z,1.43
2018-12-05T15:11:20.834Z,1.13
2018-12-05T15:13:47.439Z,1.50
2018-12-05T15:16:14.343Z,1.40
2018-12-05T15:18:41.022Z,1.50
2018-12-05T15:21:07.662Z,1.50
2018-12-05T15:23:34.570Z,1.90
2018-12-05T15:26:03.363Z,1.80
2018-12-05T15:28:29.979Z,1.73
2018-12-05T15:30:56.508Z,1.43
2018-12-05T15:33:23.103Z,1.50
2018-12-05T15:35:50.055Z,1.80
2018-12-05T15:38:17.495Z,1.57
2018-12-05T15:40:44.131Z,2.00
2018-12-05T15:43:10.726Z,2.17
2018-12-05T15:45:37.439Z,1.60
2018-12-05T15:48:04.115Z,2.00
2018-12-05T15:50:30.801Z,1.87
2018-12-05T15:52:57.678Z,2.03
2018-12-05T15:55:24.274Z,2.00
2018-12-05T15:57:51.788Z,1.60
2018-12-05T16:00:19.011Z,1.70
2018-12-05T16:02:45.702Z,1.57
2018-12-05T16:05:12.300Z,1.60
2018-12-05T16:07:38.838Z,1.57
2018-12-05T16:10:05.753Z,2.53
2018-12-05T16:12:32.274Z,1.70
2018-12-05T16:14:59.117Z,2.10
2018-12-05T16:17:25.748Z,2.10
2018-12-05T16:19:52.367Z,2.20
2018-12-05T16:22:19.021Z,2.10
2018-12-05T16:24:45.639Z,2.00
2018-12-05T16:27:12.148Z,2.47
2018-12-05T16:29:38.980Z,2.30
2018-12-05T16:32:05.562Z,2.53
2018-12-05T16:34:32.162Z,2.63
2018-12-05T16:36:59.218Z,2.57
2018-12-05T16:39:25.727Z,2.30
2018-12-05T16:41:52.206Z,2.53
2018-12-05T16:44:19.110Z,2.50
2018-12-05T16:46:45.746Z,2.50
2018-12-05T16:49:12.464Z,2.43
2018-12-05T16:51:39.404Z,2.83
2018-12-05T16:54:06.422Z,2.90
2018-12-05T16:56:33.000Z,2.47
2018-12-05T16:58:59.942Z,2.77
2018-12-05T17:01:26.498Z,2.50
2018-12-05T17:03:53.106Z,2.20
2018-12-05T17:06:20.080Z,2.70
2018-12-05T17:08:46.684Z,2.40
2018-12-05T17:11:13.212Z,3.13
2018-12-05T17:13:41.234Z,2.93
2018-12-05T17:16:07.934Z,2.80
2018-12-05T17:18:34.550Z,2.80
2018-12-05T17:21:01.366Z,2.93
2018-12-05T17:23:28.892Z,2.90
2018-12-05T17:25:55.558Z,3.10
2018-12-05T17:28:22.661Z,2.73
2018-12-05T17:30:49.188Z,2.93
2018-12-05T17:33:28.114Z,2.33
2018-12-05T17:35:54.768Z,2.40
2018-12-05T17:38:21.519Z,3.23
2018-12-05T17:40:48.336Z,2.60
2018-12-05T17:43:16.014Z,2.70
2018-12-05T17:45:43.131Z,3.10
2018-12-05T17:48:09.905Z,3.07
2018-12-05T17:50:36.490Z,2.93
2018-12-05T17:53:03.308Z,2.63
2018-12-05T17:55:30.149Z,2.70
2018-12-05T17:57:56.776Z,2.90
2018-12-05T18:00:23.500Z,3.00
2018-12-05T18:02:50.287Z,2.90
2018-12-05T18:05:16.888Z,3.57
2018-12-05T18:07:43.372Z,3.13
2018-12-05T18:10:10.150Z,3.97
2018-12-05T18:12:36.834Z,3.33
2018-12-05T18:15:03.537Z,3.13
2018-12-05T18:17:30.564Z,3.10
2018-12-05T18:19:57.205Z,2.60
2018-12-05T18:22:23.881Z,2.93
2018-12-05T18:24:50.835Z,2.77
2018-12-05T18:27:17.541Z,3.60
2018-12-05T18:29:44.102Z,3.63
2018-12-05T18:32:11.046Z,3.27
2018-12-05T18:34:37.681Z,3.30
2018-12-05T18:37:04.288Z,3.67
2018-12-05T18:39:32.001Z,4.40
2018-12-05T18:41:58.651Z,3.70
2018-12-05T18:44:25.352Z,3.50
2018-12-05T18:46:52.266Z,3.37
2018-12-05T18:49:18.966Z,3.27
2018-12-05T18:51:45.504Z,3.23
2018-12-05T18:54:12.421Z,3.00
2018-12-05T18:56:39.115Z,3.07
2018-12-05T18:59:05.751Z,2.80
2018-12-05T19:01:32.733Z,2.87
2018-12-05T19:03:59.375Z,3.20
2018-12-05T19:06:26.021Z,2.97
2018-12-05T19:08:52.800Z,3.43
2018-12-05T19:11:19.498Z,3.30
2018-12-05T19:13:52.221Z,2.97
2018-12-05T19:16:18.958Z,2.77
2018-12-05T19:18:45.494Z,3.23
2018-12-05T19:21:12.291Z,3.03
2018-12-05T19:23:39.019Z,2.93
2018-12-05T19:26:05.679Z,3.70
2018-12-05T19:28:32.376Z,3.20
2018-12-05T19:30:59.391Z,2.93
2018-12-05T19:33:25.927Z,3.93
2018-12-05T19:35:52.468Z,3.40
2018-12-05T19:38:19.439Z,3.30
2018-12-05T19:40:46.079Z,3.10
2018-12-05T19:43:12.633Z,3.30
2018-12-05T19:45:39.474Z,3.40
2018-12-05T19:48:06.116Z,3.53
2018-12-05T19:50:32.773Z,3.17
2018-12-05T19:52:59.577Z,3.33
2018-12-05T19:55:26.286Z,3.70
2018-12-05T19:57:52.945Z,3.03
2018-12-05T20:00:19.804Z,3.33
2018-12-05T20:02:46.471Z,3.27
2018-12-05T20:05:13.087Z,3.50
2018-12-05T20:07:39.975Z,3.33
2018-12-05T20:10:06.730Z,4.40
2018-12-05T20:12:33.405Z,3.90
2018-12-05T20:15:00.225Z,3.57
2018-12-05T20:17:26.955Z,3.33
2018-12-05T20:19:53.613Z,3.03
2018-12-05T20:22:20.559Z,3.40
2018-12-05T20:24:47.175Z,2.90
2018-12-05T20:27:13.732Z,3.10
2018-12-05T20:29:40.697Z,3.37
2018-12-05T20:32:07.362Z,3.13
2018-12-05T20:34:34.167Z,3.00
2018-12-05T20:37:01.614Z,3.43
2018-12-05T20:39:28.363Z,3.10
2018-12-05T20:41:58.539Z,3.30
2018-12-05T20:44:25.362Z,3.20
2018-12-05T20:46:51.996Z,3.83
2018-12-05T20:49:18.558Z,3.20
2018-12-05T20:51:45.307Z,3.13
2018-12-05T20:54:12.575Z,3.43
2018-12-05T20:56:39.221Z,3.23
2018-12-05T20:59:06.268Z,3.47
2018-12-05T21:01:32.974Z,3.40
2018-12-05T21:03:59.547Z,3.23
2018-12-05T21:06:26.495Z,3.63
2018-12-05T21:08:53.376Z,3.13
2018-12-05T21:11:20.835Z,3.50
2018-12-05T21:13:47.755Z,3.60
2018-12-05T21:16:14.414Z,3.77
2018-12-05T21:18:41.055Z,3.90
2018-12-05T21:21:07.910Z,3.83
2018-12-05T21:23:34.575Z,3.60
2018-12-05T21:26:12.819Z,4.07
2018-12-05T21:28:39.380Z,3.87
2018-12-05T21:31:06.660Z,3.63
2018-12-05T21:33:33.435Z,4.00
2018-12-05T21:36:26.697Z,4.30
2018-12-05T21:38:53.604Z,4.17
2018-12-05T21:41:20.176Z,4.03
2018-12-05T21:43:46.819Z,3.53
2018-12-05T21:46:13.882Z,4.90
2018-12-05T21:48:40.445Z,3.70
2018-12-05T21:51:07.078Z,4.17
2018-12-05T21:53:33.894Z,4.30
2018-12-05T21:56:00.924Z,3.73
2018-12-05T21:58:27.504Z,4.80
2018-12-05T22:00:54.337Z,4.27
2018-12-05T22:03:21.103Z,3.83
2018-12-05T22:05:47.965Z,4.13
2018-12-05T22:08:14.879Z,4.27
2018-12-05T22:10:41.866Z,3.57
2018-12-05T22:13:08.445Z,4.20
2018-12-05T22:15:35.717Z,4.20
2018-12-05T22:18:02.425Z,3.70
2018-12-05T22:20:29.800Z,4.40
2018-12-05T22:22:57.530Z,3.60
2018-12-05T22:25:24.482Z,4.10
2018-12-05T22:27:51.172Z,4.50
2018-12-05T22:30:18.030Z,3.57
2018-12-05T22:32:44.657Z,4.20
2018-12-05T22:35:11.293Z,3.93
2018-12-05T22:37:39.174Z,3.97
2018-12-05T22:40:07.161Z,4.00
2018-12-05T22:42:33.837Z,3.37
2018-12-05T22:45:00.667Z,3.17
2018-12-05T22:47:27.362Z,3.40
2018-12-05T22:49:54.019Z,3.87
2018-12-05T22:52:20.803Z,3.80
2018-12-05T22:54:47.471Z,4.03
2018-12-05T22:57:14.483Z,3.70
2018-12-05T22:59:41.343Z,3.83
2018-12-05T23:02:08.031Z,4.10
2018-12-05T23:04:34.793Z,3.77
2018-12-05T23:07:01.699Z,4.03
2018-12-05T23:09:28.434Z,3.47
2018-12-05T23:11:55.101Z,4.00
2018-12-05T23:14:22.073Z,3.33
2018-12-05T23:16:48.777Z,3.40
2018-12-05T23:19:15.558Z,3.37
2018-12-05T23:21:42.393Z,3.77
2018-12-05T23:24:09.063Z,3.70
2018-12-05T23:26:35.700Z,3.47
2018-12-05T23:29:02.705Z,3.63
2018-12-05T23:31:29.371Z,3.53
2018-12-05T23:33:55.996Z,3.30
2018-12-05T23:36:22.883Z,3.57
2018-12-05T23:38:49.546Z,3.87
2018-12-05T23:41:16.240Z,3.37
2018-12-05T23:43:43.123Z,3.70
2018-12-05T23:46:09.804Z,3.37
2018-12-05T23:48:36.491Z,3.87
2018-12-05T23:51:03.223Z,3.23
2018-12-05T23:53:29.902Z,3.23
2018-12-05T23:55:56.542Z,3.33
2018-12-05T23:58:23.791Z,2.93
